sensor_id;sensor_type;location;lat;lon;timestamp;temperature;humidity
7694;DHT22;3889;48.162;11.510;2023-02-15T00:01:51;0.50;99.90
7694;DHT22;3889;48.162;11.510;2023-02-15T00:04:21;0.60;99.90
7694;DHT22;3889;48.162;11.510;2023-02-15T00:06:50;0.60;99.90
7694;DHT22;3889;48.162;11.510;2023-02-15T00:09:18;0.60;99.90
7694;DHT22;3889;48.162;11.510;2023-02-15T00:11:46;0.70;99.90
7694;DHT22;3889;48.162;11.510;2023-02-15T00:14:19;0.70;99.90
7694;DHT22;3889;48.162;11.510;2023-02-15T00:16:48;0.60;99.90
7694;DHT22;3889;48.162;11.510;2023-02-15T00:19:18;0.60;99.90
7694;DHT22;3889;48.162;11.510;2023-02-15T00:21:47;0.60;99.90
7694;DHT22;3889;48.162;11.510;2023-02-15T00:24:18;0.50;99.90
7694;DHT22;3889;48.162;11.510;2023-02-15T00:26:47;0.40;99.90
7694;DHT22;3889;48.162;11.510;2023-02-15T00:29:18;0.30;99.90
7694;DHT22;3889;48.162;11.510;2023-02-15T00:31:46;0.40;99.90
7694;DHT22;3889;48.162;11.510;2023-02-15T00:34:16;0.40;99.90
7694;DHT22;3889;48.162;11.510;2023-02-15T00:36:44;0.50;99.90
7694;DHT22;3889;48.162;11.510;2023-02-15T00:39:13;0.50;99.90
7694;DHT22;3889;48.162;11.510;2023-02-15T00:41:42;0.30;99.90
7694;DHT22;3889;48.162;11.510;2023-02-15T00:44:11;0.30;99.90
7694;DHT22;3889;48.162;11.510;2023-02-15T00:46:39;0.20;99.90
7694;DHT22;3889;48.162;11.510;2023-02-15T00:49:07;0.20;99.90
7694;DHT22;3889;48.162;11.510;2023-02-15T00:51:35;0.20;99.90
7694;DHT22;3889;48.162;11.510;2023-02-15T00:54:03;0.10;99.90
7694;DHT22;3889;48.162;11.510;2023-02-15T00:56:31;0.20;99.90
7694;DHT22;3889;48.162;11.510;2023-02-15T00:59:00;0.10;99.90
7694;DHT22;3889;48.162;11.510;2023-02-15T01:01:28;0.10;99.90
7694;DHT22;3889;48.162;11.510;2023-02-15T01:03:56;0.10;99.90
7694;DHT22;3889;48.162;11.510;2023-02-15T01:06:24;0.20;99.90
7694;DHT22;3889;48.162;11.510;2023-02-15T01:08:52;0.20;99.90
7694;DHT22;3889;48.162;11.510;2023-02-15T01:11:22;0.20;99.90
7694;DHT22;3889;48.162;11.510;2023-02-15T01:13:51;0.20;99.90
7694;DHT22;3889;48.162;11.510;2023-02-15T01:16:21;0.30;99.90
7694;DHT22;3889;48.162;11.510;2023-02-15T01:18:49;0.20;99.90
7694;DHT22;3889;48.162;11.510;2023-02-15T01:21:20;0.20;99.90
7694;DHT22;3889;48.162;11.510;2023-02-15T01:23:48;0.20;99.90
7694;DHT22;3889;48.162;11.510;2023-02-15T01:26:16;0.30;99.90
7694;DHT22;3889;48.162;11.510;2023-02-15T01:28:45;0.30;99.90
7694;DHT22;3889;48.162;11.510;2023-02-15T01:31:14;0.30;99.90
7694;DHT22;3889;48.162;11.510;2023-02-15T01:33:45;0.30;99.90
7694;DHT22;3889;48.162;11.510;2023-02-15T01:36:14;0.30;99.90
7694;DHT22;3889;48.162;11.510;2023-02-15T01:38:43;0.10;99.90
7694;DHT22;3889;48.162;11.510;2023-02-15T01:41:11;0.10;99.90
7694;DHT22;3889;48.162;11.510;2023-02-15T01:43:51;0.10;99.90
7694;DHT22;3889;48.162;11.510;2023-02-15T01:46:26;0.00;99.90
7694;DHT22;3889;48.162;11.510;2023-02-15T01:49:00;0.10;99.90
7694;DHT22;3889;48.162;11.510;2023-02-15T01:51:31;0.10;99.90
7694;DHT22;3889;48.162;11.510;2023-02-15T01:54:04;0.00;99.90
7694;DHT22;3889;48.162;11.510;2023-02-15T01:56:35;0.00;99.90
7694;DHT22;3889;48.162;11.510;2023-02-15T01:59:07;-0.10;99.90
7694;DHT22;3889;48.162;11.510;2023-02-15T02:01:37;-0.10;99.90
7694;DHT22;3889;48.162;11.510;2023-02-15T02:04:12;-0.10;99.90
7694;DHT22;3889;48.162;11.510;2023-02-15T02:06:44;0.00;99.90
7694;DHT22;3889;48.162;11.510;2023-02-15T02:09:12;0.00;99.90
7694;DHT22;3889;48.162;11.510;2023-02-15T02:11:41;0.00;99.90
7694;DHT22;3889;48.162;11.510;2023-02-15T02:14:10;0.10;99.90
7694;DHT22;3889;48.162;11.510;2023-02-15T02:16:43;0.10;99.90
7694;DHT22;3889;48.162;11.510;2023-02-15T02:19:36;0.10;99.90
7694;DHT22;3889;48.162;11.510;2023-02-15T02:25:59;0.20;99.90
7694;DHT22;3889;48.162;11.510;2023-02-15T02:28:50;0.20;99.90
7694;DHT22;3889;48.162;11.510;2023-02-15T02:31:45;0.30;99.90
7694;DHT22;3889;48.162;11.510;2023-02-15T02:34:22;0.20;99.90
7694;DHT22;3889;48.162;11.510;2023-02-15T02:36:58;0.20;99.90
7694;DHT22;3889;48.162;11.510;2023-02-15T02:39:36;0.20;99.90
7694;DHT22;3889;48.162;11.510;2023-02-15T02:42:12;0.20;99.90
7694;DHT22;3889;48.162;11.510;2023-02-15T02:44:47;0.30;99.90
7694;DHT22;3889;48.162;11.510;2023-02-15T02:47:21;0.30;99.90
7694;DHT22;3889;48.162;11.510;2023-02-15T02:49:58;0.20;99.90
7694;DHT22;3889;48.162;11.510;2023-02-15T02:52:48;0.00;99.90
7694;DHT22;3889;48.162;11.510;2023-02-15T02:55:20;-0.10;99.90
7694;DHT22;3889;48.162;11.510;2023-02-15T02:57:53;-0.10;99.90
7694;DHT22;3889;48.162;11.510;2023-02-15T03:00:23;-0.10;99.90
7694;DHT22;3889;48.162;11.510;2023-02-15T03:02:56;-0.30;99.90
7694;DHT22;3889;48.162;11.510;2023-02-15T03:05:34;-0.50;99.90
7694;DHT22;3889;48.162;11.510;2023-02-15T03:08:04;-0.60;99.90
7694;DHT22;3889;48.162;11.510;2023-02-15T03:10:38;-0.40;99.90
7694;DHT22;3889;48.162;11.510;2023-02-15T03:13:08;-0.40;99.90
7694;DHT22;3889;48.162;11.510;2023-02-15T03:15:38;-0.30;99.90
7694;DHT22;3889;48.162;11.510;2023-02-15T03:18:28;-0.40;99.90
7694;DHT22;3889;48.162;11.510;2023-02-15T03:21:01;-0.30;99.90
7694;DHT22;3889;48.162;11.510;2023-02-15T03:23:30;-0.30;99.90
7694;DHT22;3889;48.162;11.510;2023-02-15T03:26:02;-0.20;99.90
7694;DHT22;3889;48.162;11.510;2023-02-15T03:28:33;-0.20;99.90
7694;DHT22;3889;48.162;11.510;2023-02-15T03:31:05;-0.30;99.90
7694;DHT22;3889;48.162;11.510;2023-02-15T03:33:36;-0.10;99.90
7694;DHT22;3889;48.162;11.510;2023-02-15T03:36:13;-0.10;99.90
7694;DHT22;3889;48.162;11.510;2023-02-15T03:38:51;0.00;99.90
7694;DHT22;3889;48.162;11.510;2023-02-15T03:41:23;0.00;99.90
7694;DHT22;3889;48.162;11.510;2023-02-15T03:43:56;0.10;99.90
7694;DHT22;3889;48.162;11.510;2023-02-15T03:46:30;0.00;99.90
7694;DHT22;3889;48.162;11.510;2023-02-15T03:49:02;0.10;99.90
7694;DHT22;3889;48.162;11.510;2023-02-15T03:51:35;0.10;99.90
7694;DHT22;3889;48.162;11.510;2023-02-15T03:54:07;0.00;99.90
7694;DHT22;3889;48.162;11.510;2023-02-15T03:56:37;0.00;99.90
7694;DHT22;3889;48.162;11.510;2023-02-15T03:59:06;-0.20;99.90
7694;DHT22;3889;48.162;11.510;2023-02-15T04:02:01;0.00;99.90
7694;DHT22;3889;48.162;11.510;2023-02-15T04:04:33;0.00;99.90
7694;DHT22;3889;48.162;11.510;2023-02-15T04:07:05;-0.30;99.90
7694;DHT22;3889;48.162;11.510;2023-02-15T04:09:34;-0.20;99.90
7694;DHT22;3889;48.162;11.510;2023-02-15T04:12:19;-0.40;99.90
7694;DHT22;3889;48.162;11.510;2023-02-15T04:14:47;-0.30;99.90
7694;DHT22;3889;48.162;11.510;2023-02-15T04:17:33;-0.30;99.90
7694;DHT22;3889;48.162;11.510;2023-02-15T04:20:00;-0.40;99.90
7694;DHT22;3889;48.162;11.510;2023-02-15T04:22:47;-0.30;99.90
7694;DHT22;3889;48.162;11.510;2023-02-15T04:25:33;-0.30;99.90
7694;DHT22;3889;48.162;11.510;2023-02-15T04:28:01;-0.30;99.90
7694;DHT22;3889;48.162;11.510;2023-02-15T04:30:29;-0.30;99.90
7694;DHT22;3889;48.162;11.510;2023-02-15T04:32:57;-0.20;99.90
7694;DHT22;3889;48.162;11.510;2023-02-15T04:35:24;-0.20;99.90
7694;DHT22;3889;48.162;11.510;2023-02-15T04:37:54;-0.10;99.90
7694;DHT22;3889;48.162;11.510;2023-02-15T04:40:22;-0.10;99.90
7694;DHT22;3889;48.162;11.510;2023-02-15T04:42:50;-0.10;99.90
7694;DHT22;3889;48.162;11.510;2023-02-15T04:45:18;-0.20;99.90
7694;DHT22;3889;48.162;11.510;2023-02-15T04:47:46;-0.40;99.90
7694;DHT22;3889;48.162;11.510;2023-02-15T04:50:14;-0.30;99.90
7694;DHT22;3889;48.162;11.510;2023-02-15T04:52:41;-0.40;99.90
7694;DHT22;3889;48.162;11.510;2023-02-15T04:55:11;-0.60;99.90
7694;DHT22;3889;48.162;11.510;2023-02-15T04:57:39;-0.60;99.90
7694;DHT22;3889;48.162;11.510;2023-02-15T05:00:07;-0.50;99.90
7694;DHT22;3889;48.162;11.510;2023-02-15T05:02:36;-0.30;99.90
7694;DHT22;3889;48.162;11.510;2023-02-15T05:05:04;-0.30;99.90
7694;DHT22;3889;48.162;11.510;2023-02-15T05:07:33;-0.30;99.90
7694;DHT22;3889;48.162;11.510;2023-02-15T05:10:01;-0.30;99.90
7694;DHT22;3889;48.162;11.510;2023-02-15T05:12:31;-0.20;99.90
7694;DHT22;3889;48.162;11.510;2023-02-15T05:14:58;-0.30;99.90
7694;DHT22;3889;48.162;11.510;2023-02-15T05:17:26;-0.40;99.90
7694;DHT22;3889;48.162;11.510;2023-02-15T05:19:54;-0.30;99.90
7694;DHT22;3889;48.162;11.510;2023-02-15T05:22:22;-0.20;99.90
7694;DHT22;3889;48.162;11.510;2023-02-15T05:24:50;-0.30;99.90
7694;DHT22;3889;48.162;11.510;2023-02-15T05:27:36;-0.30;99.90
7694;DHT22;3889;48.162;11.510;2023-02-15T05:30:22;-0.40;99.90
7694;DHT22;3889;48.162;11.510;2023-02-15T05:32:50;-0.30;99.90
7694;DHT22;3889;48.162;11.510;2023-02-15T05:35:18;-0.20;99.90
7694;DHT22;3889;48.162;11.510;2023-02-15T05:37:46;-0.20;99.90
7694;DHT22;3889;48.162;11.510;2023-02-15T05:40:14;-0.30;99.90
7694;DHT22;3889;48.162;11.510;2023-02-15T05:42:43;-0.20;99.90
7694;DHT22;3889;48.162;11.510;2023-02-15T05:45:11;-0.20;99.90
7694;DHT22;3889;48.162;11.510;2023-02-15T05:47:39;-0.10;99.90
7694;DHT22;3889;48.162;11.510;2023-02-15T05:50:07;0.00;99.90
7694;DHT22;3889;48.162;11.510;2023-02-15T05:52:35;-0.10;99.90
7694;DHT22;3889;48.162;11.510;2023-02-15T05:55:04;-0.10;99.90
7694;DHT22;3889;48.162;11.510;2023-02-15T05:57:32;-0.20;99.90
7694;DHT22;3889;48.162;11.510;2023-02-15T06:00:01;-0.10;99.90
7694;DHT22;3889;48.162;11.510;2023-02-15T06:02:33;-0.10;99.90
7694;DHT22;3889;48.162;11.510;2023-02-15T06:05:01;-0.30;99.90
7694;DHT22;3889;48.162;11.510;2023-02-15T06:07:29;-0.20;99.90
7694;DHT22;3889;48.162;11.510;2023-02-15T06:09:57;-0.20;99.90
7694;DHT22;3889;48.162;11.510;2023-02-15T06:12:25;-0.20;99.90
7694;DHT22;3889;48.162;11.510;2023-02-15T06:14:53;-0.10;99.90
7694;DHT22;3889;48.162;11.510;2023-02-15T06:17:22;-0.10;99.90
7694;DHT22;3889;48.162;11.510;2023-02-15T06:19:50;-0.10;99.90
7694;DHT22;3889;48.162;11.510;2023-02-15T06:22:18;-0.10;99.90
7694;DHT22;3889;48.162;11.510;2023-02-15T06:24:47;-0.10;99.90
7694;DHT22;3889;48.162;11.510;2023-02-15T06:27:14;-0.10;99.90
7694;DHT22;3889;48.162;11.510;2023-02-15T06:29:42;0.00;99.90
7694;DHT22;3889;48.162;11.510;2023-02-15T06:32:10;0.00;99.90
7694;DHT22;3889;48.162;11.510;2023-02-15T06:34:39;0.00;99.90
7694;DHT22;3889;48.162;11.510;2023-02-15T06:37:07;0.00;99.90
7694;DHT22;3889;48.162;11.510;2023-02-15T06:39:35;-0.10;99.90
7694;DHT22;3889;48.162;11.510;2023-02-15T06:42:04;-0.20;99.90
7694;DHT22;3889;48.162;11.510;2023-02-15T06:44:31;-0.30;99.90
7694;DHT22;3889;48.162;11.510;2023-02-15T06:46:59;-0.20;99.90
7694;DHT22;3889;48.162;11.510;2023-02-15T06:49:27;-0.20;99.90
7694;DHT22;3889;48.162;11.510;2023-02-15T06:51:56;-0.20;99.90
7694;DHT22;3889;48.162;11.510;2023-02-15T06:54:24;-0.30;99.90
7694;DHT22;3889;48.162;11.510;2023-02-15T06:56:52;-0.30;99.90
7694;DHT22;3889;48.162;11.510;2023-02-15T06:59:19;-0.20;99.90
7694;DHT22;3889;48.162;11.510;2023-02-15T07:01:47;-0.20;99.90
7694;DHT22;3889;48.162;11.510;2023-02-15T07:04:16;-0.20;99.90
7694;DHT22;3889;48.162;11.510;2023-02-15T07:06:43;-0.20;99.90
7694;DHT22;3889;48.162;11.510;2023-02-15T07:09:13;-0.20;99.90
7694;DHT22;3889;48.162;11.510;2023-02-15T07:11:41;-0.30;99.90
7694;DHT22;3889;48.162;11.510;2023-02-15T07:14:26;-0.30;99.90
7694;DHT22;3889;48.162;11.510;2023-02-15T07:16:54;-0.20;99.90
7694;DHT22;3889;48.162;11.510;2023-02-15T07:19:22;-0.10;99.90
7694;DHT22;3889;48.162;11.510;2023-02-15T07:21:50;0.00;99.90
7694;DHT22;3889;48.162;11.510;2023-02-15T07:24:19;0.00;99.90
7694;DHT22;3889;48.162;11.510;2023-02-15T07:26:47;0.00;99.90
7694;DHT22;3889;48.162;11.510;2023-02-15T07:29:15;0.00;99.90
7694;DHT22;3889;48.162;11.510;2023-02-15T07:31:43;-0.10;99.90
7694;DHT22;3889;48.162;11.510;2023-02-15T07:34:11;0.00;99.90
7694;DHT22;3889;48.162;11.510;2023-02-15T07:36:39;0.00;99.90
7694;DHT22;3889;48.162;11.510;2023-02-15T07:39:07;0.10;99.90
7694;DHT22;3889;48.162;11.510;2023-02-15T07:41:36;0.20;99.90
7694;DHT22;3889;48.162;11.510;2023-02-15T07:44:04;0.00;99.90
7694;DHT22;3889;48.162;11.510;2023-02-15T07:46:32;0.10;99.90
7694;DHT22;3889;48.162;11.510;2023-02-15T07:49:00;0.20;99.90
7694;DHT22;3889;48.162;11.510;2023-02-15T07:51:28;0.30;99.90
7694;DHT22;3889;48.162;11.510;2023-02-15T07:53:56;0.40;99.90
7694;DHT22;3889;48.162;11.510;2023-02-15T07:56:24;0.40;99.90
7694;DHT22;3889;48.162;11.510;2023-02-15T07:58:53;0.40;99.90
7694;DHT22;3889;48.162;11.510;2023-02-15T08:01:24;0.40;99.90
7694;DHT22;3889;48.162;11.510;2023-02-15T08:03:53;0.40;99.90
7694;DHT22;3889;48.162;11.510;2023-02-15T08:06:23;0.50;99.90
7694;DHT22;3889;48.162;11.510;2023-02-15T08:08:51;0.40;99.90
7694;DHT22;3889;48.162;11.510;2023-02-15T08:11:21;0.40;99.90
7694;DHT22;3889;48.162;11.510;2023-02-15T08:14:03;0.60;99.90
7694;DHT22;3889;48.162;11.510;2023-02-15T08:16:35;0.60;99.90
7694;DHT22;3889;48.162;11.510;2023-02-15T08:19:05;0.40;99.90
7694;DHT22;3889;48.162;11.510;2023-02-15T08:21:34;0.40;99.90
7694;DHT22;3889;48.162;11.510;2023-02-15T08:24:04;0.50;99.90
7694;DHT22;3889;48.162;11.510;2023-02-15T08:26:33;0.60;99.90
7694;DHT22;3889;48.162;11.510;2023-02-15T08:29:03;0.90;99.90
7694;DHT22;3889;48.162;11.510;2023-02-15T08:31:31;0.80;99.90
7694;DHT22;3889;48.162;11.510;2023-02-15T08:33:59;0.70;99.90
7694;DHT22;3889;48.162;11.510;2023-02-15T08:36:29;0.80;99.90
7694;DHT22;3889;48.162;11.510;2023-02-15T08:38:59;0.70;99.90
7694;DHT22;3889;48.162;11.510;2023-02-15T08:41:29;0.80;99.90
7694;DHT22;3889;48.162;11.510;2023-02-15T08:43:58;1.10;99.90
7694;DHT22;3889;48.162;11.510;2023-02-15T08:46:29;1.10;99.90
7694;DHT22;3889;48.162;11.510;2023-02-15T08:48:58;1.30;99.90
7694;DHT22;3889;48.162;11.510;2023-02-15T08:51:27;0.90;99.90
7694;DHT22;3889;48.162;11.510;2023-02-15T08:53:58;1.10;99.90
7694;DHT22;3889;48.162;11.510;2023-02-15T08:56:27;1.10;99.90
7694;DHT22;3889;48.162;11.510;2023-02-15T08:58:55;1.40;99.90
7694;DHT22;3889;48.162;11.510;2023-02-15T09:01:25;1.50;99.90
7694;DHT22;3889;48.162;11.510;2023-02-15T09:03:57;1.60;99.90
7694;DHT22;3889;48.162;11.510;2023-02-15T09:06:25;1.60;99.90
7694;DHT22;3889;48.162;11.510;2023-02-15T09:08:54;1.70;99.90
7694;DHT22;3889;48.162;11.510;2023-02-15T09:11:23;1.80;99.90
7694;DHT22;3889;48.162;11.510;2023-02-15T09:13:53;1.90;99.90
7694;DHT22;3889;48.162;11.510;2023-02-15T09:16:22;1.90;99.90
7694;DHT22;3889;48.162;11.510;2023-02-15T09:18:51;2.10;99.90
7694;DHT22;3889;48.162;11.510;2023-02-15T09:21:21;2.20;99.90
7694;DHT22;3889;48.162;11.510;2023-02-15T09:23:56;2.00;99.90
7694;DHT22;3889;48.162;11.510;2023-02-15T09:26:27;2.00;99.90
7694;DHT22;3889;48.162;11.510;2023-02-15T09:28:57;2.00;99.90
7694;DHT22;3889;48.162;11.510;2023-02-15T09:31:28;1.80;99.90
7694;DHT22;3889;48.162;11.510;2023-02-15T09:33:58;1.70;99.90
7694;DHT22;3889;48.162;11.510;2023-02-15T09:36:30;1.80;99.90
7694;DHT22;3889;48.162;11.510;2023-02-15T09:39:01;1.70;99.90
7694;DHT22;3889;48.162;11.510;2023-02-15T09:41:54;1.60;99.90
7694;DHT22;3889;48.162;11.510;2023-02-15T09:44:35;1.90;99.90
7694;DHT22;3889;48.162;11.510;2023-02-15T09:47:22;1.80;99.90
7694;DHT22;3889;48.162;11.510;2023-02-15T09:49:55;2.00;99.90
7694;DHT22;3889;48.162;11.510;2023-02-15T09:52:39;2.30;99.90
7694;DHT22;3889;48.162;11.510;2023-02-15T09:55:20;2.40;99.90
7694;DHT22;3889;48.162;11.510;2023-02-15T09:57:54;2.40;99.90
7694;DHT22;3889;48.162;11.510;2023-02-15T10:00:31;2.60;99.90
7694;DHT22;3889;48.162;11.510;2023-02-15T10:03:16;2.60;99.90
7694;DHT22;3889;48.162;11.510;2023-02-15T10:05:57;2.80;99.90
7694;DHT22;3889;48.162;11.510;2023-02-15T10:08:39;3.00;99.90
7694;DHT22;3889;48.162;11.510;2023-02-15T10:11:13;3.10;99.90
7694;DHT22;3889;48.162;11.510;2023-02-15T10:14:13;3.30;99.90
7694;DHT22;3889;48.162;11.510;2023-02-15T10:16:50;3.40;99.90
7694;DHT22;3889;48.162;11.510;2023-02-15T10:19:27;3.60;99.90
7694;DHT22;3889;48.162;11.510;2023-02-15T10:22:08;3.50;99.90
7694;DHT22;3889;48.162;11.510;2023-02-15T10:24:56;3.70;99.90
7694;DHT22;3889;48.162;11.510;2023-02-15T10:27:30;3.70;99.90
7694;DHT22;3889;48.162;11.510;2023-02-15T10:30:06;3.40;99.90
7694;DHT22;3889;48.162;11.510;2023-02-15T10:32:39;3.50;99.90
7694;DHT22;3889;48.162;11.510;2023-02-15T10:35:16;3.50;99.90
7694;DHT22;3889;48.162;11.510;2023-02-15T10:37:55;3.70;99.90
7694;DHT22;3889;48.162;11.510;2023-02-15T10:40:35;3.50;99.90
7694;DHT22;3889;48.162;11.510;2023-02-15T10:43:15;3.80;99.90
7694;DHT22;3889;48.162;11.510;2023-02-15T10:45:53;3.90;99.90
7694;DHT22;3889;48.162;11.510;2023-02-15T10:48:37;4.00;99.90
7694;DHT22;3889;48.162;11.510;2023-02-15T10:51:14;4.20;99.90
7694;DHT22;3889;48.162;11.510;2023-02-15T10:54:02;4.40;99.90
7694;DHT22;3889;48.162;11.510;2023-02-15T10:56:38;4.30;99.90
7694;DHT22;3889;48.162;11.510;2023-02-15T10:59:23;4.30;99.90
7694;DHT22;3889;48.162;11.510;2023-02-15T11:01:55;4.50;99.90
7694;DHT22;3889;48.162;11.510;2023-02-15T11:04:45;4.50;99.90
7694;DHT22;3889;48.162;11.510;2023-02-15T11:07:18;4.40;99.90
7694;DHT22;3889;48.162;11.510;2023-02-15T11:09:50;4.40;99.90
7694;DHT22;3889;48.162;11.510;2023-02-15T11:12:24;4.70;99.90
7694;DHT22;3889;48.162;11.510;2023-02-15T11:14:56;4.90;99.90
7694;DHT22;3889;48.162;11.510;2023-02-15T11:17:29;4.70;99.90
7694;DHT22;3889;48.162;11.510;2023-02-15T11:20:08;4.70;99.90
7694;DHT22;3889;48.162;11.510;2023-02-15T11:22:38;4.70;99.90
7694;DHT22;3889;48.162;11.510;2023-02-15T11:25:17;4.60;99.90
7694;DHT22;3889;48.162;11.510;2023-02-15T11:27:48;4.70;99.90
7694;DHT22;3889;48.162;11.510;2023-02-15T11:30:20;4.90;99.90
7694;DHT22;3889;48.162;11.510;2023-02-15T11:32:51;4.80;99.90
7694;DHT22;3889;48.162;11.510;2023-02-15T11:35:26;4.90;99.90
7694;DHT22;3889;48.162;11.510;2023-02-15T11:37:59;5.00;99.90
7694;DHT22;3889;48.162;11.510;2023-02-15T11:40:32;5.10;99.90
7694;DHT22;3889;48.162;11.510;2023-02-15T11:43:06;5.00;99.90
7694;DHT22;3889;48.162;11.510;2023-02-15T11:45:35;4.90;99.90
7694;DHT22;3889;48.162;11.510;2023-02-15T11:48:09;4.90;99.90
7694;DHT22;3889;48.162;11.510;2023-02-15T11:50:38;5.10;99.90
7694;DHT22;3889;48.162;11.510;2023-02-15T11:53:10;5.30;99.90
7694;DHT22;3889;48.162;11.510;2023-02-15T11:55:39;5.40;99.90
7694;DHT22;3889;48.162;11.510;2023-02-15T11:58:25;5.50;99.90
7694;DHT22;3889;48.162;11.510;2023-02-15T12:00:59;5.60;99.90
7694;DHT22;3889;48.162;11.510;2023-02-15T12:03:37;5.60;99.90
7694;DHT22;3889;48.162;11.510;2023-02-15T12:06:16;5.50;99.90
7694;DHT22;3889;48.162;11.510;2023-02-15T12:08:50;5.50;99.90
7694;DHT22;3889;48.162;11.510;2023-02-15T12:11:22;5.70;99.90
7694;DHT22;3889;48.162;11.510;2023-02-15T12:13:59;5.70;99.90
7694;DHT22;3889;48.162;11.510;2023-02-15T12:16:28;5.90;99.90
7694;DHT22;3889;48.162;11.510;2023-02-15T12:18:58;6.00;99.90
7694;DHT22;3889;48.162;11.510;2023-02-15T12:21:29;6.10;99.90
7694;DHT22;3889;48.162;11.510;2023-02-15T12:24:01;6.20;99.90
7694;DHT22;3889;48.162;11.510;2023-02-15T12:26:32;6.20;99.90
7694;DHT22;3889;48.162;11.510;2023-02-15T12:29:11;6.20;99.90
7694;DHT22;3889;48.162;11.510;2023-02-15T12:31:43;6.30;99.90
7694;DHT22;3889;48.162;11.510;2023-02-15T12:34:13;6.50;99.90
7694;DHT22;3889;48.162;11.510;2023-02-15T12:36:47;6.60;99.90
7694;DHT22;3889;48.162;11.510;2023-02-15T12:39:20;6.70;99.90
7694;DHT22;3889;48.162;11.510;2023-02-15T12:42:08;6.80;99.90
7694;DHT22;3889;48.162;11.510;2023-02-15T12:44:54;6.80;99.90
7694;DHT22;3889;48.162;11.510;2023-02-15T12:47:23;6.80;99.90
7694;DHT22;3889;48.162;11.510;2023-02-15T12:50:08;6.90;99.90
7694;DHT22;3889;48.162;11.510;2023-02-15T12:52:44;6.90;99.90
7694;DHT22;3889;48.162;11.510;2023-02-15T12:55:23;6.90;99.90
7694;DHT22;3889;48.162;11.510;2023-02-15T12:58:12;7.20;99.90
7694;DHT22;3889;48.162;11.510;2023-02-15T13:00:44;7.20;99.90
7694;DHT22;3889;48.162;11.510;2023-02-15T13:03:18;7.30;99.90
7694;DHT22;3889;48.162;11.510;2023-02-15T13:05:49;7.40;99.90
7694;DHT22;3889;48.162;11.510;2023-02-15T13:08:20;7.40;99.90
7694;DHT22;3889;48.162;11.510;2023-02-15T13:10:56;7.50;99.90
7694;DHT22;3889;48.162;11.510;2023-02-15T13:13:27;7.50;99.90
7694;DHT22;3889;48.162;11.510;2023-02-15T13:15:59;7.50;99.90
7694;DHT22;3889;48.162;11.510;2023-02-15T13:18:31;7.60;99.90
7694;DHT22;3889;48.162;11.510;2023-02-15T13:21:06;7.70;99.90
7694;DHT22;3889;48.162;11.510;2023-02-15T13:23:38;7.70;99.90
7694;DHT22;3889;48.162;11.510;2023-02-15T13:26:12;7.70;99.90
7694;DHT22;3889;48.162;11.510;2023-02-15T13:28:45;7.70;99.90
7694;DHT22;3889;48.162;11.510;2023-02-15T13:31:18;7.80;99.90
7694;DHT22;3889;48.162;11.510;2023-02-15T13:33:49;7.70;99.90
7694;DHT22;3889;48.162;11.510;2023-02-15T13:36:22;7.60;99.90
7694;DHT22;3889;48.162;11.510;2023-02-15T13:39:03;7.60;99.90
7694;DHT22;3889;48.162;11.510;2023-02-15T13:41:51;7.40;99.90
7694;DHT22;3889;48.162;11.510;2023-02-15T13:44:28;7.50;99.90
7694;DHT22;3889;48.162;11.510;2023-02-15T13:47:07;7.40;99.90
7694;DHT22;3889;48.162;11.510;2023-02-15T13:49:46;7.50;99.90
7694;DHT22;3889;48.162;11.510;2023-02-15T13:52:19;7.40;99.90
7694;DHT22;3889;48.162;11.510;2023-02-15T14:00:40;7.40;99.90
7694;DHT22;3889;48.162;11.510;2023-02-15T14:06:14;7.50;99.90
7694;DHT22;3889;48.162;11.510;2023-02-15T14:08:58;7.50;99.90
7694;DHT22;3889;48.162;11.510;2023-02-15T14:11:33;7.40;99.90
7694;DHT22;3889;48.162;11.510;2023-02-15T14:14:31;7.40;99.90
7694;DHT22;3889;48.162;11.510;2023-02-15T14:17:13;7.20;99.90
7694;DHT22;3889;48.162;11.510;2023-02-15T14:19:47;7.10;99.90
7694;DHT22;3889;48.162;11.510;2023-02-15T14:22:23;7.10;99.90
7694;DHT22;3889;48.162;11.510;2023-02-15T14:25:02;7.10;99.90
7694;DHT22;3889;48.162;11.510;2023-02-15T14:27:47;7.10;99.90
7694;DHT22;3889;48.162;11.510;2023-02-15T14:30:21;7.10;99.90
7694;DHT22;3889;48.162;11.510;2023-02-15T14:32:53;7.00;99.90
7694;DHT22;3889;48.162;11.510;2023-02-15T14:35:26;7.00;99.90
7694;DHT22;3889;48.162;11.510;2023-02-15T14:38:01;6.90;99.90
7694;DHT22;3889;48.162;11.510;2023-02-15T14:40:38;6.90;99.90
7694;DHT22;3889;48.162;11.510;2023-02-15T14:43:45;7.00;99.90
7694;DHT22;3889;48.162;11.510;2023-02-15T14:46:21;7.00;99.90
7694;DHT22;3889;48.162;11.510;2023-02-15T14:48:53;7.00;99.90
7694;DHT22;3889;48.162;11.510;2023-02-15T14:51:54;7.00;99.90
7694;DHT22;3889;48.162;11.510;2023-02-15T14:55:00;6.90;99.90
7694;DHT22;3889;48.162;11.510;2023-02-15T14:57:31;7.00;99.90
7694;DHT22;3889;48.162;11.510;2023-02-15T15:03:12;7.10;99.90
7694;DHT22;3889;48.162;11.510;2023-02-15T15:05:50;7.00;99.90
7694;DHT22;3889;48.162;11.510;2023-02-15T15:08:29;6.90;99.90
7694;DHT22;3889;48.162;11.510;2023-02-15T15:11:38;6.90;99.90
7694;DHT22;3889;48.162;11.510;2023-02-15T15:14:37;7.30;99.90
7694;DHT22;3889;48.162;11.510;2023-02-15T15:17:06;8.20;99.90
7694;DHT22;3889;48.162;11.510;2023-02-15T15:20:05;9.90;99.90
7694;DHT22;3889;48.162;11.510;2023-02-15T15:22:40;11.60;99.90
7694;DHT22;3889;48.162;11.510;2023-02-15T15:25:11;10.60;99.90
7694;DHT22;3889;48.162;11.510;2023-02-15T15:27:51;9.80;99.90
7694;DHT22;3889;48.162;11.510;2023-02-15T15:42:50;9.10;99.90
7694;DHT22;3889;48.162;11.510;2023-02-15T15:45:30;8.30;99.90
7694;DHT22;3889;48.162;11.510;2023-02-15T15:48:18;7.70;99.90
7694;DHT22;3889;48.162;11.510;2023-02-15T15:50:52;7.60;99.90
7694;DHT22;3889;48.162;11.510;2023-02-15T15:53:23;7.10;99.90
7694;DHT22;3889;48.162;11.510;2023-02-15T15:55:55;7.20;99.90
7694;DHT22;3889;48.162;11.510;2023-02-15T15:58:26;7.40;99.90
7694;DHT22;3889;48.162;11.510;2023-02-15T16:00:59;6.90;99.90
7694;DHT22;3889;48.162;11.510;2023-02-15T16:03:30;6.40;99.90
7694;DHT22;3889;48.162;11.510;2023-02-15T16:05:59;6.00;99.90
7694;DHT22;3889;48.162;11.510;2023-02-15T16:08:30;5.70;99.90
7694;DHT22;3889;48.162;11.510;2023-02-15T16:10:59;5.40;99.90
7694;DHT22;3889;48.162;11.510;2023-02-15T16:13:29;5.20;99.90
7694;DHT22;3889;48.162;11.510;2023-02-15T16:15:57;5.00;99.90
7694;DHT22;3889;48.162;11.510;2023-02-15T16:18:26;4.80;99.90
7694;DHT22;3889;48.162;11.510;2023-02-15T16:20:57;4.70;99.90
7694;DHT22;3889;48.162;11.510;2023-02-15T16:23:53;4.70;99.90
7694;DHT22;3889;48.162;11.510;2023-02-15T16:26:39;4.50;99.90
7694;DHT22;3889;48.162;11.510;2023-02-15T16:29:15;4.10;99.90
7694;DHT22;3889;48.162;11.510;2023-02-15T16:31:57;4.00;99.90
7694;DHT22;3889;48.162;11.510;2023-02-15T16:34:26;4.00;99.90
7694;DHT22;3889;48.162;11.510;2023-02-15T16:37:14;3.80;99.90
7694;DHT22;3889;48.162;11.510;2023-02-15T16:39:43;3.60;99.90
7694;DHT22;3889;48.162;11.510;2023-02-15T16:42:13;3.50;99.90
7694;DHT22;3889;48.162;11.510;2023-02-15T16:44:43;3.50;99.90
7694;DHT22;3889;48.162;11.510;2023-02-15T16:47:16;3.30;99.90
7694;DHT22;3889;48.162;11.510;2023-02-15T16:49:47;3.10;99.90
7694;DHT22;3889;48.162;11.510;2023-02-15T16:52:20;3.00;99.90
7694;DHT22;3889;48.162;11.510;2023-02-15T16:54:51;2.80;99.90
7694;DHT22;3889;48.162;11.510;2023-02-15T16:57:22;2.80;99.90
7694;DHT22;3889;48.162;11.510;2023-02-15T16:59:53;2.80;99.90
7694;DHT22;3889;48.162;11.510;2023-02-15T17:02:25;2.60;99.90
7694;DHT22;3889;48.162;11.510;2023-02-15T17:05:16;2.60;99.90